sensor_id;sensor_type;location;lat;lon;timestamp;pressure;altitude;pressure_sealevel;temperature;humidity
72921;BME280;61064;51.654;5.476;2023-05-25T00:00:37;102601.00;;;11.20;71.68
72921;BME280;61064;51.654;5.476;2023-05-25T00:03:02;102599.97;;;11.16;71.89
72921;BME280;61064;51.654;5.476;2023-05-25T00:05:28;102599.06;;;11.16;72.14
72921;BME280;61064;51.654;5.476;2023-05-25T00:07:54;102608.81;;;11.15;72.22
72921;BME280;61064;51.654;5.476;2023-05-25T00:10:20;102604.47;;;11.17;72.21
72921;BME280;61064;51.654;5.476;2023-05-25T00:12:46;102595.47;;;11.14;72.19
72921;BME280;61064;51.654;5.476;2023-05-25T00:15:11;102605.38;;;11.18;72.02
72921;BME280;61064;51.654;5.476;2023-05-25T00:17:37;102592.00;;;11.16;72.15
72921;BME280;61064;51.654;5.476;2023-05-25T00:20:03;102607.06;;;11.16;72.11
72921;BME280;61064;51.654;5.476;2023-05-25T00:22:35;102608.03;;;11.18;72.28
72921;BME280;61064;51.654;5.476;2023-05-25T00:25:02;102599.97;;;11.16;72.28
72921;BME280;61064;51.654;5.476;2023-05-25T00:27:28;102605.25;;;11.15;72.10
72921;BME280;61064;51.654;5.476;2023-05-25T00:29:53;102603.41;;;11.12;72.29
72921;BME280;61064;51.654;5.476;2023-05-25T00:32:19;102610.56;;;11.13;72.17
72921;BME280;61064;51.654;5.476;2023-05-25T00:34:44;102604.25;;;11.11;72.39
72921;BME280;61064;51.654;5.476;2023-05-25T00:37:10;102612.31;;;11.13;72.30
72921;BME280;61064;51.654;5.476;2023-05-25T00:39:35;102606.94;;;11.11;72.48
72921;BME280;61064;51.654;5.476;2023-05-25T00:42:01;102621.09;;;11.10;72.45
72921;BME280;61064;51.654;5.476;2023-05-25T00:44:27;102621.91;;;11.08;72.52
72921;BME280;61064;51.654;5.476;2023-05-25T00:46:52;102612.16;;;11.08;72.42
72921;BME280;61064;51.654;5.476;2023-05-25T00:49:19;102606.84;;;11.08;72.39
72921;BME280;61064;51.654;5.476;2023-05-25T00:51:46;102605.09;;;11.09;72.55
72921;BME280;61064;51.654;5.476;2023-05-25T00:54:15;102601.44;;;11.07;72.54
72921;BME280;61064;51.654;5.476;2023-05-25T00:56:53;102599.56;;;11.03;72.63
72921;BME280;61064;51.654;5.476;2023-05-25T00:59:43;102614.56;;;11.01;72.69
72921;BME280;61064;51.654;5.476;2023-05-25T01:02:11;102615.34;;;10.98;72.56
72921;BME280;61064;51.654;5.476;2023-05-25T01:04:42;102615.22;;;10.94;72.59
72921;BME280;61064;51.654;5.476;2023-05-25T01:07:09;102617.88;;;10.94;72.90
72921;BME280;61064;51.654;5.476;2023-05-25T01:09:40;102614.16;;;10.89;72.97
72921;BME280;61064;51.654;5.476;2023-05-25T01:12:09;102613.94;;;10.82;72.97
72921;BME280;61064;51.654;5.476;2023-05-25T01:14:38;102617.47;;;10.81;72.86
72921;BME280;61064;51.654;5.476;2023-05-25T01:17:10;102619.06;;;10.76;72.96
72921;BME280;61064;51.654;5.476;2023-05-25T01:19:36;102619.94;;;10.75;73.16
72921;BME280;61064;51.654;5.476;2023-05-25T01:22:17;102619.81;;;10.72;73.24
72921;BME280;61064;51.654;5.476;2023-05-25T01:24:50;102626.06;;;10.73;73.33
72921;BME280;61064;51.654;5.476;2023-05-25T01:27:27;102624.25;;;10.72;73.31
72921;BME280;61064;51.654;5.476;2023-05-25T01:29:57;102637.50;;;10.70;73.35
72921;BME280;61064;51.654;5.476;2023-05-25T01:32:23;102638.25;;;10.66;73.13
72921;BME280;61064;51.654;5.476;2023-05-25T01:34:49;102638.16;;;10.63;73.45
72921;BME280;61064;51.654;5.476;2023-05-25T01:37:17;102646.97;;;10.62;73.46
72921;BME280;61064;51.654;5.476;2023-05-25T01:39:43;102639.63;;;10.55;73.26
72921;BME280;61064;51.654;5.476;2023-05-25T01:42:08;102643.13;;;10.54;73.55
72921;BME280;61064;51.654;5.476;2023-05-25T01:44:35;102642.19;;;10.52;73.60
72921;BME280;61064;51.654;5.476;2023-05-25T01:52:25;102643.56;;;10.41;73.82
72921;BME280;61064;51.654;5.476;2023-05-25T01:55:16;102646.09;;;10.38;73.69
72921;BME280;61064;51.654;5.476;2023-05-25T01:57:42;102652.28;;;10.37;73.58
72921;BME280;61064;51.654;5.476;2023-05-25T02:00:11;102653.09;;;10.34;74.06
72921;BME280;61064;51.654;5.476;2023-05-25T02:02:39;102647.59;;;10.30;73.95
72921;BME280;61064;51.654;5.476;2023-05-25T02:05:06;102643.13;;;10.29;74.11
72921;BME280;61064;51.654;5.476;2023-05-25T02:07:32;102648.44;;;10.29;74.01
72921;BME280;61064;51.654;5.476;2023-05-25T02:09:57;102643.13;;;10.29;74.22
72921;BME280;61064;51.654;5.476;2023-05-25T02:12:23;102642.97;;;10.24;74.13
72921;BME280;61064;51.654;5.476;2023-05-25T02:14:49;102644.72;;;10.24;74.21
72921;BME280;61064;51.654;5.476;2023-05-25T02:17:15;102641.09;;;10.22;74.02
72921;BME280;61064;51.654;5.476;2023-05-25T02:19:42;102641.00;;;10.20;74.09
72921;BME280;61064;51.654;5.476;2023-05-25T02:22:07;102644.50;;;10.18;74.17
72921;BME280;61064;51.654;5.476;2023-05-25T02:24:32;102642.53;;;10.14;74.24
72921;BME280;61064;51.654;5.476;2023-05-25T02:26:59;102657.38;;;10.09;74.16
72921;BME280;61064;51.654;5.476;2023-05-25T02:29:25;102646.66;;;10.06;74.42
72921;BME280;61064;51.654;5.476;2023-05-25T02:31:51;102640.25;;;10.00;74.62
72921;BME280;61064;51.654;5.476;2023-05-25T02:34:16;102642.78;;;9.97;74.60
72921;BME280;61064;51.654;5.476;2023-05-25T02:36:42;102654.28;;;9.96;74.70
72921;BME280;61064;51.654;5.476;2023-05-25T02:39:09;102647.03;;;9.92;74.72
72921;BME280;61064;51.654;5.476;2023-05-25T02:41:35;102641.53;;;9.88;74.68
72921;BME280;61064;51.654;5.476;2023-05-25T02:44:00;102641.47;;;9.86;74.76
72921;BME280;61064;51.654;5.476;2023-05-25T02:46:26;102644.09;;;9.85;74.84
72921;BME280;61064;51.654;5.476;2023-05-25T02:48:51;102642.13;;;9.79;75.02
72921;BME280;61064;51.654;5.476;2023-05-25T02:51:17;102650.09;;;9.79;75.02
72921;BME280;61064;51.654;5.476;2023-05-25T02:53:42;102643.56;;;9.71;74.88
72921;BME280;61064;51.654;5.476;2023-05-25T02:56:07;102641.81;;;9.72;75.17
72921;BME280;61064;51.654;5.476;2023-05-25T02:58:35;102643.47;;;9.68;75.17
72921;BME280;61064;51.654;5.476;2023-05-25T03:01:02;102652.13;;;9.64;75.02
72921;BME280;61064;51.654;5.476;2023-05-25T03:03:29;102650.22;;;9.60;75.01
72921;BME280;61064;51.654;5.476;2023-05-25T03:05:55;102658.13;;;9.58;75.42
72921;BME280;61064;51.654;5.476;2023-05-25T03:08:21;102653.53;;;9.54;75.24
72921;BME280;61064;51.654;5.476;2023-05-25T03:10:46;102651.78;;;9.55;75.64
72921;BME280;61064;51.654;5.476;2023-05-25T03:13:12;102657.09;;;9.55;75.53
72921;BME280;61064;51.654;5.476;2023-05-25T03:15:37;102650.69;;;9.50;75.53
72921;BME280;61064;51.654;5.476;2023-05-25T03:18:04;102670.28;;;9.52;75.86
72921;BME280;61064;51.654;5.476;2023-05-25T03:20:30;102677.38;;;9.53;75.79
72921;BME280;61064;51.654;5.476;2023-05-25T03:22:57;102673.88;;;9.54;75.71
72921;BME280;61064;51.654;5.476;2023-05-25T03:25:22;102675.59;;;9.52;75.79
72921;BME280;61064;51.654;5.476;2023-05-25T03:27:51;102679.16;;;9.52;75.83
72921;BME280;61064;51.654;5.476;2023-05-25T03:30:17;102683.56;;;9.52;75.69
72921;BME280;61064;51.654;5.476;2023-05-25T03:32:42;102682.66;;;9.51;75.72
72921;BME280;61064;51.654;5.476;2023-05-25T03:35:08;102689.72;;;9.51;76.07
72921;BME280;61064;51.654;5.476;2023-05-25T03:37:33;102684.22;;;9.46;76.00
72921;BME280;61064;51.654;5.476;2023-05-25T03:39:58;102689.47;;;9.45;76.01
72921;BME280;61064;51.654;5.476;2023-05-25T03:42:23;102698.28;;;9.44;76.05
72921;BME280;61064;51.654;5.476;2023-05-25T03:44:49;102695.75;;;9.47;76.14
72921;BME280;61064;51.654;5.476;2023-05-25T03:47:14;102699.28;;;9.47;76.26
72921;BME280;61064;51.654;5.476;2023-05-25T03:49:40;102698.28;;;9.44;76.08
72921;BME280;61064;51.654;5.476;2023-05-25T03:52:05;102706.16;;;9.42;76.30
72921;BME280;61064;51.654;5.476;2023-05-25T03:54:31;102705.16;;;9.39;76.34
72921;BME280;61064;51.654;5.476;2023-05-25T03:56:57;102704.16;;;9.37;76.27
72921;BME280;61064;51.654;5.476;2023-05-25T03:59:23;102703.25;;;9.36;76.56
72921;BME280;61064;51.654;5.476;2023-05-25T04:01:49;102711.31;;;9.38;76.58
72921;BME280;61064;51.654;5.476;2023-05-25T04:04:15;102704.25;;;9.38;76.38
72921;BME280;61064;51.654;5.476;2023-05-25T04:06:40;102705.03;;;9.36;76.63
72921;BME280;61064;51.654;5.476;2023-05-25T04:09:06;102692.63;;;9.36;76.54
72921;BME280;61064;51.654;5.476;2023-05-25T04:11:32;102692.72;;;9.38;76.60
72921;BME280;61064;51.654;5.476;2023-05-25T04:13:57;102698.94;;;9.38;76.73
72921;BME280;61064;51.654;5.476;2023-05-25T04:16:24;102703.47;;;9.41;76.91
72921;BME280;61064;51.654;5.476;2023-05-25T04:19:07;102701.72;;;9.41;76.79
72921;BME280;61064;51.654;5.476;2023-05-25T04:21:33;102696.34;;;9.40;76.62
72921;BME280;61064;51.654;5.476;2023-05-25T04:23:58;102700.94;;;9.44;76.95
72921;BME280;61064;51.654;5.476;2023-05-25T04:26:24;102703.78;;;9.48;76.87
72921;BME280;61064;51.654;5.476;2023-05-25T04:28:53;102714.47;;;9.50;76.76
72921;BME280;61064;51.654;5.476;2023-05-25T04:31:20;102716.34;;;9.52;76.89
72921;BME280;61064;51.654;5.476;2023-05-25T04:33:45;102718.22;;;9.55;77.00
72921;BME280;61064;51.654;5.476;2023-05-25T04:36:11;102711.09;;;9.54;77.07
72921;BME280;61064;51.654;5.476;2023-05-25T04:38:38;102719.19;;;9.57;77.02
72921;BME280;61064;51.654;5.476;2023-05-25T04:41:03;102717.38;;;9.56;76.90
72921;BME280;61064;51.654;5.476;2023-05-25T04:43:31;102730.84;;;9.60;77.02
72921;BME280;61064;51.654;5.476;2023-05-25T04:45:57;102717.63;;;9.62;76.88
72921;BME280;61064;51.654;5.476;2023-05-25T04:48:24;102722.09;;;9.63;77.21
72921;BME280;61064;51.654;5.476;2023-05-25T04:50:49;102713.22;;;9.63;77.15
72921;BME280;61064;51.654;5.476;2023-05-25T04:53:15;102727.59;;;9.68;77.48
72921;BME280;61064;51.654;5.476;2023-05-25T04:55:41;102717.81;;;9.67;77.22
72921;BME280;61064;51.654;5.476;2023-05-25T04:58:06;102726.88;;;9.72;77.47
72921;BME280;61064;51.654;5.476;2023-05-25T05:00:32;102737.63;;;9.75;77.33
72921;BME280;61064;51.654;5.476;2023-05-25T05:02:58;102730.50;;;9.74;77.59
72921;BME280;61064;51.654;5.476;2023-05-25T05:05:24;102734.25;;;9.79;77.64
72921;BME280;61064;51.654;5.476;2023-05-25T05:07:49;102728.13;;;9.81;77.69
72921;BME280;61064;51.654;5.476;2023-05-25T05:10:16;102732.78;;;9.87;77.72
72921;BME280;61064;51.654;5.476;2023-05-25T05:12:41;102721.38;;;9.89;77.67
72921;BME280;61064;51.654;5.476;2023-05-25T05:15:07;102735.75;;;9.94;77.86
72921;BME280;61064;51.654;5.476;2023-05-25T05:17:32;102740.41;;;10.00;78.22
72921;BME280;61064;51.654;5.476;2023-05-25T05:19:58;102742.22;;;10.01;78.09
72921;BME280;61064;51.654;5.476;2023-05-25T05:22:23;102736.22;;;10.07;77.90
72921;BME280;61064;51.654;5.476;2023-05-25T05:24:49;102743.47;;;10.11;78.16
72921;BME280;61064;51.654;5.476;2023-05-25T05:27:15;102744.72;;;10.19;78.44
72921;BME280;61064;51.654;5.476;2023-05-25T05:29:40;102745.84;;;10.25;78.30
72921;BME280;61064;51.654;5.476;2023-05-25T05:32:06;102750.69;;;10.35;78.45
72921;BME280;61064;51.654;5.476;2023-05-25T05:34:32;102744.94;;;10.49;78.56
72921;BME280;61064;51.654;5.476;2023-05-25T05:36:57;102752.63;;;10.63;78.38
72921;BME280;61064;51.654;5.476;2023-05-25T05:39:25;102750.50;;;10.78;78.31
72921;BME280;61064;51.654;5.476;2023-05-25T05:41:57;102752.06;;;10.97;78.28
72921;BME280;61064;51.654;5.476;2023-05-25T05:44:23;102760.75;;;11.17;78.29
72921;BME280;61064;51.654;5.476;2023-05-25T05:46:49;102764.09;;;11.37;77.91
72921;BME280;61064;51.654;5.476;2023-05-25T05:49:14;102759.41;;;11.56;77.75
72921;BME280;61064;51.654;5.476;2023-05-25T05:51:39;102769.00;;;11.77;77.48
72921;BME280;61064;51.654;5.476;2023-05-25T05:54:06;102762.41;;;11.92;77.18
72921;BME280;61064;51.654;5.476;2023-05-25T05:56:31;102763.78;;;12.08;77.09
72921;BME280;61064;51.654;5.476;2023-05-25T05:58:57;102769.72;;;12.28;76.86
72921;BME280;61064;51.654;5.476;2023-05-25T06:01:22;102776.41;;;12.43;76.77
72921;BME280;61064;51.654;5.476;2023-05-25T06:03:48;102774.16;;;12.57;76.48
72921;BME280;61064;51.654;5.476;2023-05-25T06:06:14;102773.63;;;12.69;76.26
72921;BME280;61064;51.654;5.476;2023-05-25T06:08:41;102776.66;;;12.82;76.10
72921;BME280;61064;51.654;5.476;2023-05-25T06:11:06;102773.47;;;12.96;75.71
72921;BME280;61064;51.654;5.476;2023-05-25T06:13:32;102777.34;;;13.07;75.52
72921;BME280;61064;51.654;5.476;2023-05-25T06:15:57;102771.34;;;13.15;75.39
72921;BME280;61064;51.654;5.476;2023-05-25T06:18:22;102769.00;;;13.26;75.15
72921;BME280;61064;51.654;5.476;2023-05-25T06:20:48;102771.97;;;13.38;75.24
72921;BME280;61064;51.654;5.476;2023-05-25T06:23:13;102776.75;;;13.51;74.77
72921;BME280;61064;51.654;5.476;2023-05-25T06:25:39;102782.53;;;13.68;74.59
72921;BME280;61064;51.654;5.476;2023-05-25T06:28:05;102778.34;;;13.79;74.34
72921;BME280;61064;51.654;5.476;2023-05-25T06:30:30;102777.63;;;13.86;74.01
72921;BME280;61064;51.654;5.476;2023-05-25T06:32:56;102768.75;;;13.87;73.85
72921;BME280;61064;51.654;5.476;2023-05-25T06:35:22;102770.78;;;13.99;73.75
72921;BME280;61064;51.654;5.476;2023-05-25T06:37:48;102779.94;;;14.08;73.44
72921;BME280;61064;51.654;5.476;2023-05-25T06:40:14;102785.59;;;14.21;73.53
72921;BME280;61064;51.654;5.476;2023-05-25T06:42:40;102784.13;;;14.36;72.99
72921;BME280;61064;51.654;5.476;2023-05-25T06:45:06;102789.63;;;14.41;72.74
72921;BME280;61064;51.654;5.476;2023-05-25T06:47:31;102799.75;;;14.54;72.67
72921;BME280;61064;51.654;5.476;2023-05-25T06:49:57;102798.97;;;14.60;72.18
72921;BME280;61064;51.654;5.476;2023-05-25T06:52:22;102792.94;;;14.70;72.04
72921;BME280;61064;51.654;5.476;2023-05-25T06:54:48;102802.16;;;14.85;71.83
72921;BME280;61064;51.654;5.476;2023-05-25T06:57:13;102804.19;;;14.97;71.66
72921;BME280;61064;51.654;5.476;2023-05-25T06:59:38;102810.66;;;15.08;71.02
72921;BME280;61064;51.654;5.476;2023-05-25T07:02:04;102804.44;;;15.09;70.51
72921;BME280;61064;51.654;5.476;2023-05-25T07:04:29;102805.22;;;15.05;70.61
72921;BME280;61064;51.654;5.476;2023-05-25T07:06:55;102808.91;;;15.10;70.45
72921;BME280;61064;51.654;5.476;2023-05-25T07:09:20;102803.63;;;15.13;70.35
72921;BME280;61064;51.654;5.476;2023-05-25T07:11:46;102802.81;;;15.19;69.92
72921;BME280;61064;51.654;5.476;2023-05-25T07:14:11;102804.75;;;15.27;69.78
72921;BME280;61064;51.654;5.476;2023-05-25T07:16:37;102803.09;;;15.34;69.78
72921;BME280;61064;51.654;5.476;2023-05-25T07:19:02;102809.59;;;15.47;69.38
72921;BME280;61064;51.654;5.476;2023-05-25T07:21:30;102802.56;;;15.52;69.07
72921;BME280;61064;51.654;5.476;2023-05-25T07:23:56;102798.13;;;15.54;69.23
72921;BME280;61064;51.654;5.476;2023-05-25T07:26:22;102798.22;;;15.58;68.92
72921;BME280;61064;51.654;5.476;2023-05-25T07:28:49;102804.56;;;15.63;69.11
72921;BME280;61064;51.654;5.476;2023-05-25T07:31:15;102808.25;;;15.70;68.98
72921;BME280;61064;51.654;5.476;2023-05-25T07:33:42;102803.81;;;15.73;68.51
72921;BME280;61064;51.654;5.476;2023-05-25T07:36:07;102809.31;;;15.81;68.50
72921;BME280;61064;51.654;5.476;2023-05-25T07:38:33;102804.97;;;15.88;68.30
72921;BME280;61064;51.654;5.476;2023-05-25T07:40:59;102807.75;;;15.95;67.89
72921;BME280;61064;51.654;5.476;2023-05-25T07:43:25;102809.59;;;15.98;67.63
72921;BME280;61064;51.654;5.476;2023-05-25T07:45:50;102804.31;;;16.04;67.62
72921;BME280;61064;51.654;5.476;2023-05-25T07:48:15;102814.34;;;16.15;67.32
72921;BME280;61064;51.654;5.476;2023-05-25T07:50:41;102814.53;;;16.29;67.22
72921;BME280;61064;51.654;5.476;2023-05-25T07:53:06;102814.72;;;16.41;67.08
72921;BME280;61064;51.654;5.476;2023-05-25T07:55:31;102814.84;;;16.52;66.72
72921;BME280;61064;51.654;5.476;2023-05-25T07:57:57;102815.84;;;16.58;66.18
72921;BME280;61064;51.654;5.476;2023-05-25T08:00:22;102825.75;;;16.61;65.87
72921;BME280;61064;51.654;5.476;2023-05-25T08:02:47;102814.16;;;16.63;65.78
72921;BME280;61064;51.654;5.476;2023-05-25T08:05:13;102827.63;;;16.68;65.52
72921;BME280;61064;51.654;5.476;2023-05-25T08:07:40;102832.19;;;16.74;65.41
72921;BME280;61064;51.654;5.476;2023-05-25T08:10:06;102826.91;;;16.80;65.54
72921;BME280;61064;51.654;5.476;2023-05-25T08:12:31;102808.97;;;16.80;65.28
72921;BME280;61064;51.654;5.476;2023-05-25T08:14:57;102828.03;;;17.00;64.93
72921;BME280;61064;51.654;5.476;2023-05-25T08:17:22;102808.31;;;16.99;64.72
72921;BME280;61064;51.654;5.476;2023-05-25T08:19:48;102817.31;;;17.03;64.29
72921;BME280;61064;51.654;5.476;2023-05-25T08:22:13;102797.50;;;16.95;64.24
72921;BME280;61064;51.654;5.476;2023-05-25T08:24:39;102827.22;;;17.07;64.16
72921;BME280;61064;51.654;5.476;2023-05-25T08:27:05;102816.50;;;17.10;64.19
72921;BME280;61064;51.654;5.476;2023-05-25T08:29:30;102812.06;;;17.17;64.16
72921;BME280;61064;51.654;5.476;2023-05-25T08:31:56;102818.59;;;17.38;63.27
72921;BME280;61064;51.654;5.476;2023-05-25T08:34:21;102828.56;;;17.50;62.81
72921;BME280;61064;51.654;5.476;2023-05-25T08:36:47;102831.41;;;17.61;62.39
72921;BME280;61064;51.654;5.476;2023-05-25T08:39:12;102820.59;;;17.59;61.96
72921;BME280;61064;51.654;5.476;2023-05-25T08:41:44;102830.56;;;17.68;61.21
72921;BME280;61064;51.654;5.476;2023-05-25T08:44:10;102827.97;;;17.80;61.73
72921;BME280;61064;51.654;5.476;2023-05-25T08:46:36;102835.38;;;18.05;61.39
72921;BME280;61064;51.654;5.476;2023-05-25T08:49:10;102842.63;;;18.15;60.83
72921;BME280;61064;51.654;5.476;2023-05-25T08:51:37;102828.19;;;18.04;60.22
72921;BME280;61064;51.654;5.476;2023-05-25T08:54:11;102845.16;;;17.97;60.25
72921;BME280;61064;51.654;5.476;2023-05-25T08:59:46;102839.50;;;17.64;60.53
72921;BME280;61064;51.654;5.476;2023-05-25T09:02:25;102842.06;;;17.56;60.19
72921;BME280;61064;51.654;5.476;2023-05-25T09:04:56;102836.59;;;17.45;60.12
72921;BME280;61064;51.654;5.476;2023-05-25T09:07:23;102848.22;;;17.38;60.23
72921;BME280;61064;51.654;5.476;2023-05-25T09:09:50;102858.91;;;17.35;60.19
72921;BME280;61064;51.654;5.476;2023-05-25T09:12:16;102847.19;;;17.27;60.46
72921;BME280;61064;51.654;5.476;2023-05-25T09:14:43;102851.66;;;17.27;60.38
72921;BME280;61064;51.654;5.476;2023-05-25T09:17:17;102861.44;;;17.20;60.44
72921;BME280;61064;51.654;5.476;2023-05-25T09:19:45;102863.19;;;17.15;60.78
72921;BME280;61064;51.654;5.476;2023-05-25T09:22:10;102861.31;;;17.08;60.93
72921;BME280;61064;51.654;5.476;2023-05-25T09:24:36;102864.81;;;16.99;60.88
72921;BME280;61064;51.654;5.476;2023-05-25T09:27:02;102864.72;;;16.93;61.01
72921;BME280;61064;51.654;5.476;2023-05-25T09:29:33;102866.44;;;16.87;60.75
72921;BME280;61064;51.654;5.476;2023-05-25T09:31:59;102861.06;;;16.87;60.68
72921;BME280;61064;51.654;5.476;2023-05-25T09:34:29;102861.88;;;16.81;60.77
72921;BME280;61064;51.654;5.476;2023-05-25T09:36:58;102852.84;;;16.76;60.84
72921;BME280;61064;51.654;5.476;2023-05-25T09:39:24;102860.97;;;16.81;60.60
72921;BME280;61064;51.654;5.476;2023-05-25T09:41:49;102859.16;;;16.80;60.41
72921;BME280;61064;51.654;5.476;2023-05-25T09:44:14;102863.59;;;16.76;60.23
72921;BME280;61064;51.654;5.476;2023-05-25T09:46:40;102867.19;;;16.78;60.51
72921;BME280;61064;51.654;5.476;2023-05-25T09:49:07;102862.81;;;16.85;60.20
72921;BME280;61064;51.654;5.476;2023-05-25T09:51:33;102853.97;;;16.95;60.33
72921;BME280;61064;51.654;5.476;2023-05-25T09:54:01;102859.56;;;17.13;59.98
72921;BME280;61064;51.654;5.476;2023-05-25T09:56:29;102862.34;;;17.21;59.36
72921;BME280;61064;51.654;5.476;2023-05-25T09:58:56;102871.50;;;17.36;59.33
72921;BME280;61064;51.654;5.476;2023-05-25T10:01:22;102870.75;;;17.53;59.32
72921;BME280;61064;51.654;5.476;2023-05-25T10:03:47;102860.22;;;17.72;58.74
72921;BME280;61064;51.654;5.476;2023-05-25T10:06:16;102852.28;;;17.88;58.38
72921;BME280;61064;51.654;5.476;2023-05-25T10:08:47;102859.56;;;18.02;57.80
72921;BME280;61064;51.654;5.476;2023-05-25T10:11:18;102869.53;;;18.14;57.54
72921;BME280;61064;51.654;5.476;2023-05-25T10:13:45;102865.13;;;18.22;57.25
72921;BME280;61064;51.654;5.476;2023-05-25T10:16:14;102858.88;;;18.31;56.94
72921;BME280;61064;51.654;5.476;2023-05-25T10:21:33;102866.97;;;18.31;56.84
72921;BME280;61064;51.654;5.476;2023-05-25T10:24:07;102870.53;;;18.28;56.57
72921;BME280;61064;51.654;5.476;2023-05-25T10:26:35;102870.53;;;18.28;56.49
72921;BME280;61064;51.654;5.476;2023-05-25T10:29:05;102869.59;;;18.23;56.21
72921;BME280;61064;51.654;5.476;2023-05-25T10:31:33;102868.75;;;18.27;56.48
72921;BME280;61064;51.654;5.476;2023-05-25T10:34:02;102870.63;;;18.40;56.25
72921;BME280;61064;51.654;5.476;2023-05-25T10:36:31;102867.13;;;18.53;56.09
72921;BME280;61064;51.654;5.476;2023-05-25T10:38:58;102869.97;;;18.72;55.71
72921;BME280;61064;51.654;5.476;2023-05-25T10:41:24;102862.78;;;18.78;55.69
72921;BME280;61064;51.654;5.476;2023-05-25T10:43:50;102859.22;;;18.90;55.66
72921;BME280;61064;51.654;5.476;2023-05-25T10:46:17;102859.34;;;19.16;55.64
72921;BME280;61064;51.654;5.476;2023-05-25T10:48:49;102863.00;;;19.39;55.22
72921;BME280;61064;51.654;5.476;2023-05-25T10:51:39;102863.94;;;19.47;54.77
72921;BME280;61064;51.654;5.476;2023-05-25T10:54:05;102848.63;;;19.46;54.65
72921;BME280;61064;51.654;5.476;2023-05-25T10:56:30;102852.25;;;19.52;54.85
72921;BME280;61064;51.654;5.476;2023-05-25T10:58:56;102861.28;;;19.59;54.36
72921;BME280;61064;51.654;5.476;2023-05-25T11:01:21;102856.78;;;19.55;54.29
72921;BME280;61064;51.654;5.476;2023-05-25T11:07:05;102856.69;;;19.35;54.25
72921;BME280;61064;51.654;5.476;2023-05-25T11:09:59;102862.06;;;19.31;54.41
72921;BME280;61064;51.654;5.476;2023-05-25T11:13:19;102857.56;;;19.24;54.51
72921;BME280;61064;51.654;5.476;2023-05-25T11:27:14;102844.88;;;18.94;54.81
72921;BME280;61064;51.654;5.476;2023-05-25T11:29:52;102842.16;;;18.95;54.78
72921;BME280;61064;51.654;5.476;2023-05-25T11:32:18;102831.38;;;18.92;54.53
72921;BME280;61064;51.654;5.476;2023-05-25T11:35:14;102841.31;;;19.04;54.25
72921;BME280;61064;51.654;5.476;2023-05-25T11:37:48;102833.25;;;19.15;54.40
72921;BME280;61064;51.654;5.476;2023-05-25T11:40:29;102813.47;;;19.29;53.82
72921;BME280;61064;51.654;5.476;2023-05-25T11:43:27;102825.22;;;19.43;53.31
72921;BME280;61064;51.654;5.476;2023-05-25T11:46:24;102823.44;;;19.47;53.09
72921;BME280;61064;51.654;5.476;2023-05-25T11:52:10;102819.81;;;19.42;53.43
72921;BME280;61064;51.654;5.476;2023-05-25T11:54:42;102792.81;;;19.37;53.17
72921;BME280;61064;51.654;5.476;2023-05-25T11:57:27;102795.50;;;19.42;53.18
72921;BME280;61064;51.654;5.476;2023-05-25T12:00:49;102800.94;;;19.57;53.43
72921;BME280;61064;51.654;5.476;2023-05-25T12:07:21;102797.38;;;19.78;52.73
72921;BME280;61064;51.654;5.476;2023-05-25T12:13:56;102787.44;;;19.75;52.82
72921;BME280;61064;51.654;5.476;2023-05-25T12:16:45;102803.66;;;19.93;52.61
72921;BME280;61064;51.654;5.476;2023-05-25T12:19:20;102774.81;;;19.89;52.19
72921;BME280;61064;51.654;5.476;2023-05-25T12:21:51;102781.16;;;19.88;51.90
72921;BME280;61064;51.654;5.476;2023-05-25T12:24:26;102781.16;;;19.88;52.12
72921;BME280;61064;51.654;5.476;2023-05-25T12:26:52;102772.09;;;19.89;51.73
72921;BME280;61064;51.654;5.476;2023-05-25T12:29:28;102779.34;;;19.77;51.89
72921;BME280;61064;51.654;5.476;2023-05-25T12:32:02;102779.34;;;19.71;51.71
72921;BME280;61064;51.654;5.476;2023-05-25T12:34:32;102787.47;;;19.71;51.66
72921;BME280;61064;51.654;5.476;2023-05-25T12:37:01;102780.25;;;19.59;51.47
72921;BME280;61064;51.654;5.476;2023-05-25T12:41:56;102765.84;;;19.54;51.48
72921;BME280;61064;51.654;5.476;2023-05-25T12:44:27;102776.63;;;19.62;51.33
72921;BME280;61064;51.654;5.476;2023-05-25T12:46:59;102792.84;;;19.74;51.41
72921;BME280;61064;51.654;5.476;2023-05-25T12:49:42;102795.56;;;19.75;51.29
72921;BME280;61064;51.654;5.476;2023-05-25T12:52:09;102800.06;;;19.72;51.26
72921;BME280;61064;51.654;5.476;2023-05-25T12:54:36;102800.97;;;19.72;51.23
72921;BME280;61064;51.654;5.476;2023-05-25T12:57:07;102793.75;;;19.70;51.10
72921;BME280;61064;51.654;5.476;2023-05-25T12:59:34;102794.63;;;19.67;51.05
72921;BME280;61064;51.654;5.476;2023-05-25T13:02:00;102791.97;;;19.70;50.99
72921;BME280;61064;51.654;5.476;2023-05-25T13:04:26;102794.66;;;19.70;50.91
72921;BME280;61064;51.654;5.476;2023-05-25T13:06:52;102791.97;;;19.70;50.93
72921;BME280;61064;51.654;5.476;2023-05-25T13:09:18;102782.03;;;19.69;50.55
72921;BME280;61064;51.654;5.476;2023-05-25T13:11:43;102786.56;;;19.72;50.42
72921;BME280;61064;51.654;5.476;2023-05-25T13:14:09;102783.84;;;19.75;50.51
72921;BME280;61064;51.654;5.476;2023-05-25T13:16:34;102785.66;;;19.80;50.41
72921;BME280;61064;51.654;5.476;2023-05-25T13:19:01;102772.13;;;19.85;50.33
72921;BME280;61064;51.654;5.476;2023-05-25T13:21:26;102775.75;;;19.88;49.98
72921;BME280;61064;51.654;5.476;2023-05-25T13:23:52;102777.53;;;19.88;49.88
72921;BME280;61064;51.654;5.476;2023-05-25T13:26:18;102772.16;;;19.83;50.04
72921;BME280;61064;51.654;5.476;2023-05-25T13:28:44;102765.84;;;19.75;50.11
72921;BME280;61064;51.654;5.476;2023-05-25T13:31:10;102769.47;;;19.67;50.17
72921;BME280;61064;51.654;5.476;2023-05-25T13:33:35;102769.47;;;19.67;50.61
72921;BME280;61064;51.654;5.476;2023-05-25T13:36:01;102763.13;;;19.68;50.60